Terminal Aerodrome Forecast
Issued by NWS Charleston, SC

Home | Current Version | Previous Version | Text Only | Print | Product List | Glossary On
Versions: 1 2 3 4 5 6 7 8 9 10 11 12 13 14 15 16 17 18
000
FTUS42 KCHS 231100
TAFCHS
TAF
KCHS 231130Z 2312/2412 31005KT P6SM FEW060 SCT150
     FM231800 14007KT P6SM VCTS BKN060CB
     FM232300 VRB05KT P6SM SCT060 BKN150
     FM240900 04004KT P6SM BKN035=

USA.gov is the U.S. government's official web portal to all federal, state and local government web resources and services.